Time;durP1;ratioP1;P1;durP2;ratioP2;P2;SDS_P1;SDS_P2;PMS_P1;PMS_P2;Temp;Humidity;BMP_temperature;BMP_pressure;BME280_temperature;BME280_humidity;BME280_pressure;Samples;Min_cycle;Max_cycle;Signal;HPM_P1;HPM_P2
2021/05/03 00:02:10;;;;;;;1.47;0.43;;;6.30;70.10;;;;;;5069324;28;20048;-70
2021/05/03 00:04:37;;;;;;;1.53;0.30;;;6.40;70.20;;;;;;5076945;28;20495;-70
2021/05/03 00:07:04;;;;;;;0.93;0.27;;;6.40;70.20;;;;;;5078763;28;20090;-70
2021/05/03 00:09:31;;;;;;;0.97;0.20;;;6.40;70.20;;;;;;5081655;28;20047;-70
2021/05/03 00:11:57;;;;;;;0.90;0.33;;;6.40;70.20;;;;;;5079603;28;20049;-70
2021/05/03 00:14:23;;;;;;;0.80;0.30;;;6.40;70.30;;;;;;5077596;28;20032;-70
2021/05/03 00:16:50;;;;;;;2.00;0.60;;;6.40;70.30;;;;;;5073435;28;20102;-70
2021/05/03 00:19:17;;;;;;;1.70;0.40;;;6.30;70.60;;;;;;5073289;28;20040;-70
2021/05/03 00:21:44;;;;;;;0.80;0.40;;;6.30;70.60;;;;;;5074284;28;20040;-70
2021/05/03 00:24:11;;;;;;;1.50;0.50;;;6.30;70.70;;;;;;5056811;28;20135;-70
2021/05/03 00:26:37;;;;;;;0.80;0.30;;;6.30;70.80;;;;;;5073636;28;20037;-70
2021/05/03 00:29:04;;;;;;;1.27;0.40;;;6.30;70.90;;;;;;5074389;28;20432;-70
2021/05/03 00:31:30;;;;;;;1.13;0.40;;;6.30;71.10;;;;;;5072934;28;20124;-71
2021/05/03 00:33:57;;;;;;;1.03;0.30;;;6.20;71.20;;;;;;5053583;28;20037;-70
2021/05/03 00:36:24;;;;;;;1.23;0.40;;;6.20;71.40;;;;;;5073008;28;20037;-70
2021/05/03 00:38:50;;;;;;;1.30;0.60;;;6.10;71.50;;;;;;5072949;28;20059;-70
2021/05/03 00:41:17;;;;;;;1.17;0.40;;;6.10;71.60;;;;;;5074185;28;20408;-70
2021/05/03 00:43:44;;;;;;;1.03;0.40;;;6.10;71.80;;;;;;5072919;28;20789;-70
2021/05/03 00:46:10;;;;;;;1.57;0.50;;;6.00;71.90;;;;;;5069669;28;20060;-70
2021/05/03 00:48:37;;;;;;;1.07;0.47;;;6.00;72.10;;;;;;5074272;28;20427;-70
2021/05/03 00:51:04;;;;;;;1.50;0.40;;;5.90;72.10;;;;;;5074075;28;20033;-70
2021/05/03 00:53:30;;;;;;;0.90;0.40;;;5.90;72.20;;;;;;5072850;28;20511;-70
2021/05/03 00:55:57;;;;;;;2.30;0.80;;;5.80;72.30;;;;;;5072800;28;20048;-70
2021/05/03 00:58:23;;;;;;;1.03;0.40;;;5.80;72.40;;;;;;5072728;28;20105;-70
2021/05/03 01:00:49;;;;;;;1.43;0.40;;;5.80;72.50;;;;;;5072312;28;20054;-70
2021/05/03 01:03:16;;;;;;;1.23;0.60;;;5.80;72.60;;;;;;5073972;28;20052;-70
2021/05/03 01:05:43;;;;;;;1.13;0.50;;;5.80;72.70;;;;;;5073661;28;20056;-70
2021/05/03 01:08:09;;;;;;;1.67;0.60;;;5.80;72.80;;;;;;5052868;28;20103;-70
2021/05/03 01:10:36;;;;;;;1.60;0.67;;;5.70;72.80;;;;;;5086362;28;20547;-72
2021/05/03 01:13:02;;;;;;;1.67;0.53;;;5.70;72.90;;;;;;5073443;28;20480;-72
2021/05/03 01:15:29;;;;;;;0.90;0.40;;;5.70;73.00;;;;;;5072195;28;20102;-72
2021/05/03 01:17:58;;;;;;;1.73;0.80;;;5.70;73.10;;;;;;5073662;28;20106;-72
2021/05/03 01:20:27;;;;;;;2.20;0.67;;;5.70;73.20;;;;;;5072508;28;20051;-72
2021/05/03 01:22:57;;;;;;;1.57;0.67;;;5.60;73.90;;;;;;5073789;28;20036;-72
2021/05/03 01:25:31;;;;;;;2.87;0.60;;;5.60;73.30;;;;;;5072694;28;20094;-72
2021/05/03 01:28:07;;;;;;;1.73;0.60;;;5.60;73.50;;;;;;5073129;28;20033;-72
2021/05/03 01:30:35;;;;;;;1.63;0.80;;;5.60;73.50;;;;;;5039494;28;20044;-71
2021/05/03 01:33:04;;;;;;;1.77;0.60;;;5.60;73.60;;;;;;5070269;28;20476;-72
2021/05/03 01:35:31;;;;;;;1.53;0.60;;;5.60;73.60;;;;;;5073524;28;20044;-72
2021/05/03 01:37:59;;;;;;;1.20;0.60;;;5.60;73.70;;;;;;5072248;28;20139;-72
2021/05/03 01:40:28;;;;;;;2.00;0.83;;;5.60;73.70;;;;;;5071605;28;20603;-71
2021/05/03 01:42:56;;;;;;;1.47;0.70;;;5.60;73.70;;;;;;5073220;28;20040;-72
2021/05/03 01:45:27;;;;;;;1.93;0.70;;;5.50;73.70;;;;;;5073160;28;20056;-72
2021/05/03 01:47:54;;;;;;;1.20;0.63;;;5.50;73.80;;;;;;5071981;28;20114;-72
2021/05/03 01:50:23;;;;;;;1.83;0.80;;;5.50;73.90;;;;;;5073151;28;20048;-72
2021/05/03 01:52:50;;;;;;;1.30;0.60;;;5.40;74.00;;;;;;5073087;28;20040;-72
2021/05/03 01:55:18;;;;;;;1.10;0.50;;;5.40;74.10;;;;;;5071794;28;20090;-72
2021/05/03 01:57:45;;;;;;;1.40;0.90;;;5.40;74.20;;;;;;5071894;28;20074;-72
2021/05/03 02:00:13;;;;;;;1.67;0.90;;;5.40;74.20;;;;;;5072495;28;20048;-71
2021/05/03 02:02:45;;;;;;;1.90;0.60;;;5.30;74.30;;;;;;5032130;28;20044;-72
2021/05/03 02:05:20;;;;;;;1.57;0.67;;;5.30;74.40;;;;;;5055037;28;20062;-71
2021/05/03 02:08:04;;;;;;;1.67;0.77;;;5.30;74.50;;;;;;5071346;28;20479;-72
2021/05/03 02:10:33;;;;;;;1.60;0.60;;;5.20;74.60;;;;;;5072584;28;20613;-71
2021/05/03 02:13:01;;;;;;;1.60;0.70;;;5.20;74.70;;;;;;5062210;28;20044;-72
2021/05/03 02:15:29;;;;;;;1.27;0.63;;;5.20;74.70;;;;;;5071176;28;20032;-72
2021/05/03 02:17:56;;;;;;;2.10;0.70;;;5.20;74.80;;;;;;5072351;28;20111;-72
2021/05/03 02:20:23;;;;;;;4.00;1.67;;;5.10;74.80;;;;;;5071317;28;20512;-72
2021/05/03 02:22:50;;;;;;;1.97;0.83;;;5.10;74.90;;;;;;5065822;28;20045;-72
2021/05/03 02:25:16;;;;;;;1.63;0.63;;;5.10;75.00;;;;;;5071181;28;20067;-72
2021/05/03 02:27:47;;;;;;;1.70;0.80;;;5.10;75.70;;;;;;5068943;28;20455;-72
2021/05/03 02:30:16;;;;;;;2.33;1.23;;;5.00;75.10;;;;;;5071316;28;20094;-71
2021/05/03 02:32:45;;;;;;;2.10;0.80;;;5.00;75.10;;;;;;5072205;28;20040;-71
2021/05/03 02:35:17;;;;;;;1.80;0.60;;;5.00;75.20;;;;;;5069612;28;20033;-72
2021/05/03 02:37:47;;;;;;;2.00;1.02;;;5.00;75.30;;;;;;5063816;28;20048;-71
2021/05/03 02:40:15;;;;;;;1.90;0.80;;;5.00;75.30;;;;;;5070632;28;20048;-71
2021/05/03 02:42:46;;;;;;;1.83;0.77;;;5.00;75.30;;;;;;5070632;28;20044;-72
2021/05/03 02:45:13;;;;;;;1.90;0.67;;;5.00;75.90;;;;;;5072069;28;20105;-71
2021/05/03 02:47:41;;;;;;;2.10;0.90;;;5.00;75.40;;;;;;5071903;28;20036;-72
2021/05/03 02:50:09;;;;;;;2.63;1.03;;;5.00;75.50;;;;;;5070799;28;20462;-72
2021/05/03 02:52:35;;;;;;;2.23;1.17;;;5.00;75.50;;;;;;5071626;28;20043;-72
2021/05/03 02:55:03;;;;;;;2.40;1.10;;;4.90;75.40;;;;;;5070456;28;20117;-72
2021/05/03 02:57:29;;;;;;;2.07;0.90;;;5.00;75.50;;;;;;5070470;28;20366;-72
2021/05/03 02:59:56;;;;;;;1.60;0.80;;;4.90;75.50;;;;;;5059144;28;20095;-71
2021/05/03 03:02:22;;;;;;;1.87;0.80;;;4.90;76.20;;;;;;5071389;28;20044;-71
2021/05/03 03:04:49;;;;;;;2.43;1.17;;;4.90;75.60;;;;;;5070304;28;20515;-72
2021/05/03 03:07:15;;;;;;;2.37;0.83;;;4.90;75.70;;;;;;5053578;28;20036;-72
2021/05/03 03:09:42;;;;;;;1.67;0.80;;;4.90;75.80;;;;;;5070081;28;20040;-72
2021/05/03 03:12:11;;;;;;;1.47;0.60;;;4.90;75.80;;;;;;5053782;28;20393;-71
2021/05/03 03:14:37;;;;;;;1.70;0.80;;;4.90;75.80;;;;;;5070259;28;20040;-72
2021/05/03 03:17:04;;;;;;;2.60;1.00;;;4.90;75.90;;;;;;5070247;28;20056;-72
2021/05/03 03:19:31;;;;;;;1.50;0.87;;;4.80;75.90;;;;;;5069844;28;20084;-71
2021/05/03 03:21:58;;;;;;;2.03;0.83;;;4.80;75.90;;;;;;5071683;28;20046;-72
2021/05/03 03:24:24;;;;;;;2.57;0.90;;;4.80;76.00;;;;;;5070203;28;20621;-72
2021/05/03 03:26:51;;;;;;;2.87;1.60;;;4.80;76.10;;;;;;5071469;28;20044;-72
2021/05/03 03:29:17;;;;;;;4.00;1.00;;;4.80;76.10;;;;;;5071181;28;20055;-71
2021/05/03 03:31:43;;;;;;;1.73;0.70;;;4.80;76.20;;;;;;5070015;28;20048;-71
2021/05/03 03:34:10;;;;;;;1.93;0.80;;;4.80;76.20;;;;;;5070961;28;20044;-72
2021/05/03 03:36:37;;;;;;;2.63;1.30;;;4.70;76.30;;;;;;5070093;28;20066;-72
2021/05/03 03:39:06;;;;;;;2.57;1.00;;;4.70;76.30;;;;;;5070620;28;20442;-72
2021/05/03 03:41:33;;;;;;;4.43;1.27;;;4.70;76.40;;;;;;5069783;28;20037;-72
2021/05/03 03:44:01;;;;;;;2.03;1.00;;;4.70;76.40;;;;;;5069537;28;20048;-72
2021/05/03 03:46:28;;;;;;;2.27;0.97;;;4.70;76.40;;;;;;5068641;28;20048;-72
2021/05/03 03:48:55;;;;;;;2.70;1.43;;;4.70;76.50;;;;;;5069723;28;20527;-72
2021/05/03 03:51:22;;;;;;;2.30;1.20;;;4.70;76.60;;;;;;5069844;28;20049;-72
2021/05/03 03:53:49;;;;;;;3.67;1.03;;;4.70;76.60;;;;;;5069970;28;20029;-72
2021/05/03 03:56:18;;;;;;;1.50;0.60;;;4.70;76.60;;;;;;5071139;28;20041;-72
2021/05/03 03:58:45;;;;;;;2.20;1.00;;;4.80;76.60;;;;;;5069889;28;20049;-71
2021/05/03 04:01:12;;;;;;;2.93;1.13;;;4.70;76.60;;;;;;5071212;28;20036;-72
2021/05/03 04:03:48;;;;;;;2.30;0.90;;;4.80;76.60;;;;;;5069649;28;20045;-72
2021/05/03 04:08:57;;;;;;;2.93;1.40;;;4.80;76.70;;;;;;5069642;28;20039;-72
2021/05/03 04:24:54;;;;;;;2.33;0.90;;;4.90;76.70;;;;;;5055396;28;20101;-72
2021/05/03 04:27:21;;;;;;;3.20;1.33;;;4.90;76.70;;;;;;5053843;28;20443;-72
2021/05/03 04:29:48;;;;;;;2.97;1.27;;;4.90;76.80;;;;;;5071063;28;20033;-72
2021/05/03 04:32:14;;;;;;;2.40;1.10;;;4.90;76.80;;;;;;5068433;28;20032;-72
2021/05/03 04:34:41;;;;;;;2.60;1.30;;;4.90;76.90;;;;;;5062349;28;20037;-72
2021/05/03 04:37:08;;;;;;;2.93;1.27;;;4.90;76.80;;;;;;5067559;28;20140;-72
2021/05/03 04:39:35;;;;;;;2.70;1.23;;;5.00;76.90;;;;;;5069293;28;20044;-72
2021/05/03 04:42:02;;;;;;;2.60;1.30;;;5.00;76.90;;;;;;5071168;28;20071;-72
2021/05/03 04:44:28;;;;;;;1.77;1.10;;;5.00;76.90;;;;;;5052974;28;20052;-72
2021/05/03 04:46:55;;;;;;;3.50;1.33;;;5.00;76.80;;;;;;5056686;28;20064;-72
2021/05/03 04:49:22;;;;;;;3.30;1.63;;;5.10;76.80;;;;;;5071545;28;20128;-72
2021/05/03 04:51:48;;;;;;;2.83;1.43;;;5.20;76.80;;;;;;5059308;28;20033;-72
2021/05/03 04:54:15;;;;;;;2.50;1.33;;;5.30;76.70;;;;;;5073144;28;20033;-72
2021/05/03 04:56:41;;;;;;;4.03;1.67;;;5.30;76.60;;;;;;5073989;28;20045;-72
2021/05/03 04:59:08;;;;;;;2.23;1.10;;;5.40;76.60;;;;;;5073215;28;20144;-72
2021/05/03 05:01:34;;;;;;;2.47;1.23;;;5.50;76.50;;;;;;5071969;28;20056;-72
2021/05/03 05:04:01;;;;;;;2.77;1.20;;;5.60;76.50;;;;;;5072110;28;20055;-72
2021/05/03 05:06:27;;;;;;;4.73;1.20;;;5.60;76.40;;;;;;5071546;28;20041;-73
2021/05/03 05:08:54;;;;;;;2.50;1.40;;;5.70;76.30;;;;;;5073940;28;20094;-72
2021/05/03 05:11:21;;;;;;;2.90;1.50;;;5.80;76.20;;;;;;5074276;28;20480;-70
2021/05/03 05:13:47;;;;;;;4.70;1.90;;;5.90;76.20;;;;;;5073676;28;20106;-70
2021/05/03 05:16:14;;;;;;;3.03;1.73;;;5.90;76.00;;;;;;5072649;28;20412;-70
2021/05/03 05:18:41;;;;;;;3.90;2.10;;;6.00;76.00;;;;;;5072506;28;20046;-72
2021/05/03 05:21:08;;;;;;;3.93;1.97;;;6.10;75.80;;;;;;5072554;28;20044;-70
2021/05/03 05:23:34;;;;;;;3.67;1.50;;;6.10;75.70;;;;;;5052204;28;20065;-72
2021/05/03 05:26:01;;;;;;;3.70;1.80;;;6.20;75.70;;;;;;5052420;28;20455;-72
2021/05/03 05:28:27;;;;;;;3.60;1.80;;;6.20;75.50;;;;;;5066023;28;20040;-72
2021/05/03 05:30:54;;;;;;;3.87;2.00;;;6.20;75.50;;;;;;5072306;28;20048;-72
2021/05/03 05:33:21;;;;;;;4.53;2.17;;;6.20;75.30;;;;;;5072380;28;20044;-72
2021/05/03 05:35:47;;;;;;;3.97;2.03;;;6.20;75.30;;;;;;5073804;28;20036;-72
2021/05/03 05:38:13;;;;;;;4.37;1.90;;;6.20;75.20;;;;;;5072939;28;20037;-71
2021/05/03 05:40:40;;;;;;;4.30;2.30;;;6.30;75.10;;;;;;5073998;28;20109;-71
2021/05/03 05:43:07;;;;;;;4.70;2.43;;;6.30;75.10;;;;;;5072210;28;20048;-71
2021/05/03 05:45:33;;;;;;;4.17;2.20;;;6.30;75.00;;;;;;5073744;28;20130;-72
2021/05/03 05:48:00;;;;;;;4.10;2.03;;;6.40;74.90;;;;;;5071294;28;20045;-72
2021/05/03 05:50:27;;;;;;;3.77;1.90;;;6.50;74.80;;;;;;5052448;28;20115;-71
2021/05/03 05:52:55;;;;;;;3.83;2.10;;;6.50;74.70;;;;;;5065933;28;20369;-72
2021/05/03 05:55:22;;;;;;;3.90;2.20;;;6.60;74.60;;;;;;5070918;28;20036;-72
2021/05/03 05:57:49;;;;;;;4.00;2.50;;;6.70;74.50;;;;;;5075045;28;20033;-74
2021/05/03 06:00:16;;;;;;;3.80;2.30;;;6.70;74.30;;;;;;5069493;28;20732;-72
2021/05/03 06:02:43;;;;;;;4.30;2.30;;;6.80;74.30;;;;;;5071170;28;20045;-72
2021/05/03 06:05:11;;;;;;;4.43;2.17;;;6.80;74.20;;;;;;5068151;28;20456;-72
2021/05/03 06:07:38;;;;;;;4.47;2.37;;;6.80;74.10;;;;;;5071522;28;20045;-73
2021/05/03 06:10:07;;;;;;;4.67;2.70;;;6.80;74.50;;;;;;5068457;28;20037;-73
2021/05/03 06:12:34;;;;;;;5.97;2.53;;;6.80;73.90;;;;;;5071664;28;20040;-72
2021/05/03 06:15:06;;;;;;;4.77;2.40;;;6.90;73.90;;;;;;5052197;28;20400;-71
2021/05/03 06:17:32;;;;;;;5.50;2.50;;;6.90;73.90;;;;;;5062686;28;20416;-71
2021/05/03 06:19:59;;;;;;;3.03;1.50;;;6.90;73.90;;;;;;5071100;28;20056;-71
2021/05/03 06:22:28;;;;;;;3.27;2.20;;;7.00;73.90;;;;;;5067616;28;20056;-71
2021/05/03 06:24:55;;;;;;;4.77;2.07;;;7.00;73.70;;;;;;5062469;28;20511;-70
2021/05/03 06:27:21;;;;;;;4.33;2.50;;;7.00;73.70;;;;;;5068809;28;20455;-69
2021/05/03 06:29:48;;;;;;;4.33;2.27;;;7.10;73.60;;;;;;5069957;28;20116;-71
2021/05/03 06:32:14;;;;;;;4.13;2.40;;;7.10;73.50;;;;;;5069248;28;20486;-71
2021/05/03 06:34:43;;;;;;;3.60;2.27;;;7.10;73.40;;;;;;5069550;28;20063;-71
2021/05/03 06:37:10;;;;;;;4.10;2.50;;;7.20;73.20;;;;;;5069282;28;20040;-70
2021/05/03 06:39:37;;;;;;;3.93;2.47;;;7.20;73.10;;;;;;5070428;28;20040;-71
2021/05/03 06:42:05;;;;;;;8.17;3.03;;;7.30;73.00;;;;;;5051285;28;20044;-71
2021/05/03 06:44:34;;;;;;;4.37;2.43;;;7.30;72.80;;;;;;5069648;28;20123;-71
2021/05/03 06:47:03;;;;;;;4.03;2.13;;;7.40;72.60;;;;;;5070927;28;20044;-71
2021/05/03 06:49:30;;;;;;;3.63;1.97;;;7.50;72.40;;;;;;5071940;28;20037;-71
2021/05/03 06:51:57;;;;;;;5.07;2.40;;;7.60;72.30;;;;;;5070953;28;20037;-71
2021/05/03 06:54:24;;;;;;;4.07;1.83;;;7.70;72.10;;;;;;5072777;28;20040;-71
2021/05/03 06:56:50;;;;;;;4.73;1.83;;;7.70;71.90;;;;;;5070318;28;20070;-70
2021/05/03 06:59:17;;;;;;;3.33;1.83;;;7.80;71.80;;;;;;5070653;28;20109;-71
2021/05/03 07:01:44;;;;;;;7.07;2.30;;;8.00;71.70;;;;;;5055030;28;20487;-70
2021/05/03 07:04:10;;;;;;;4.17;2.67;;;8.00;71.20;;;;;;5084395;28;20129;-70
2021/05/03 07:06:37;;;;;;;4.10;2.33;;;8.00;70.90;;;;;;5053775;28;20565;-70
2021/05/03 07:09:08;;;;;;;3.20;1.93;;;8.10;70.90;;;;;;5053869;28;20416;-70
2021/05/03 07:11:35;;;;;;;3.80;1.50;;;8.20;70.80;;;;;;5071869;28;20442;-70
2021/05/03 07:14:03;;;;;;;3.23;1.77;;;8.20;70.70;;;;;;5070527;28;20048;-70
2021/05/03 07:16:30;;;;;;;3.80;1.77;;;8.40;70.60;;;;;;5071046;28;20110;-70
2021/05/03 07:18:56;;;;;;;3.50;1.83;;;8.40;70.80;;;;;;5070379;28;20090;-70
2021/05/03 07:21:23;;;;;;;3.80;2.00;;;8.50;69.90;;;;;;5050073;28;20041;-70
2021/05/03 07:23:50;;;;;;;4.43;2.17;;;8.60;69.60;;;;;;5049152;28;20451;-70
2021/05/03 07:26:17;;;;;;;4.73;2.10;;;8.60;69.40;;;;;;5070126;28;20037;-70
2021/05/03 07:28:44;;;;;;;3.17;1.70;;;8.70;69.50;;;;;;5070142;28;20044;-70
2021/05/03 07:31:10;;;;;;;4.50;1.57;;;8.80;69.50;;;;;;5070239;28;20044;-70
2021/05/03 07:33:37;;;;;;;3.60;1.35;;;8.90;69.30;;;;;;5071042;28;20044;-70
2021/05/03 07:36:04;;;;;;;3.47;2.17;;;9.00;68.90;;;;;;5069468;28;20041;-70
2021/05/03 07:38:31;;;;;;;3.78;2.30;;;9.00;68.60;;;;;;5049955;28;20546;-72
2021/05/03 07:40:58;;;;;;;3.45;2.00;;;9.10;68.30;;;;;;5068094;28;20407;-72
2021/05/03 07:43:25;;;;;;;3.53;2.13;;;9.10;68.30;;;;;;5071398;28;20040;-73
2021/05/03 07:45:51;;;;;;;3.43;1.97;;;9.20;68.30;;;;;;5053061;28;20392;-73
2021/05/03 07:48:18;;;;;;;3.90;2.10;;;9.20;68.00;;;;;;5071251;28;20028;-73
2021/05/03 07:50:44;;;;;;;5.22;2.45;;;9.30;68.00;;;;;;5071284;28;20033;-73
2021/05/03 07:53:11;;;;;;;4.53;2.50;;;9.30;67.80;;;;;;5051326;28;20037;-73
2021/05/03 07:55:38;;;;;;;3.53;1.98;;;9.40;67.70;;;;;;5071290;28;20071;-73
2021/05/03 07:58:05;;;;;;;4.20;2.40;;;9.50;67.70;;;;;;5069704;28;20496;-73
2021/05/03 08:00:32;;;;;;;5.30;2.58;;;9.70;67.60;;;;;;5056317;28;20044;-73
2021/05/03 08:02:59;;;;;;;5.97;3.28;;;9.90;67.50;;;;;;5070973;28;20051;-73
2021/05/03 08:05:26;;;;;;;5.18;3.60;;;10.10;67.10;;;;;;5070366;28;20041;-73
2021/05/03 08:07:52;;;;;;;8.00;4.88;;;10.20;66.60;;;;;;5069951;28;20059;-73
2021/05/03 08:10:19;;;;;;;8.57;4.45;;;10.30;66.50;;;;;;5053510;28;20045;-73
2021/05/03 08:12:46;;;;;;;6.28;4.25;;;10.40;66.40;;;;;;5069501;28;20163;-73
2021/05/03 08:15:13;;;;;;;7.95;5.35;;;10.50;66.20;;;;;;5071046;28;20499;-73
2021/05/03 08:17:44;;;;;;;9.43;6.68;;;10.60;66.00;;;;;;5070224;28;20033;-72
2021/05/03 08:20:13;;;;;;;9.02;5.97;;;10.70;65.60;;;;;;5069314;28;20560;-74
2021/05/03 08:22:41;;;;;;;9.70;5.22;;;10.80;65.70;;;;;;5064568;28;20127;-74
2021/05/03 08:25:08;;;;;;;9.55;5.70;;;10.90;65.50;;;;;;5070207;28;20037;-73
2021/05/03 08:27:36;;;;;;;8.13;5.07;;;11.10;65.40;;;;;;5064277;28;20055;-73
2021/05/03 08:30:08;;;;;;;10.52;5.97;;;11.30;65.30;;;;;;5053416;28;20044;-73
2021/05/03 08:32:35;;;;;;;10.43;6.90;;;11.40;65.00;;;;;;5065746;28;20029;-73
2021/05/03 08:35:03;;;;;;;10.77;7.32;;;11.50;65.40;;;;;;5069022;28;20064;-73
2021/05/03 08:37:31;;;;;;;10.70;7.68;;;11.70;64.40;;;;;;5065139;28;20361;-73
2021/05/03 08:39:57;;;;;;;10.40;6.57;;;11.70;63.80;;;;;;5064521;28;20496;-73
2021/05/03 08:42:24;;;;;;;11.00;7.45;;;11.80;64.00;;;;;;5046700;28;20076;-73
2021/05/03 08:44:53;;;;;;;12.80;7.32;;;11.90;64.00;;;;;;5053456;28;20075;-73
2021/05/03 08:47:20;;;;;;;10.35;7.43;;;12.00;63.80;;;;;;5048924;28;20049;-73
2021/05/03 08:49:56;;;;;;;10.75;7.78;;;12.00;63.10;;;;;;5063998;28;20076;-73
2021/05/03 08:52:36;;;;;;;10.60;7.45;;;12.10;63.10;;;;;;5069882;28;20136;-73
2021/05/03 08:55:04;;;;;;;9.65;6.60;;;12.10;63.10;;;;;;5070244;28;20660;-73
2021/05/03 08:57:30;;;;;;;11.55;6.97;;;12.20;63.10;;;;;;5069992;28;20041;-73
2021/05/03 08:59:56;;;;;;;8.55;6.15;;;12.30;62.90;;;;;;5071239;28;20085;-73
2021/05/03 09:02:24;;;;;;;11.52;7.15;;;12.30;62.80;;;;;;5069808;28;20048;-73
2021/05/03 09:04:51;;;;;;;9.45;6.97;;;12.40;62.60;;;;;;5071533;28;20066;-73
2021/05/03 09:07:18;;;;;;;12.35;7.63;;;12.50;62.00;;;;;;5070220;28;20058;-73
2021/05/03 09:09:45;;;;;;;9.85;6.93;;;12.60;62.10;;;;;;5052571;28;20040;-73
2021/05/03 09:12:23;;;;;;;8.68;6.53;;;12.60;62.10;;;;;;5071079;28;20055;-74
2021/05/03 09:14:54;;;;;;;8.93;6.07;;;12.80;62.10;;;;;;5069435;28;20037;-73
2021/05/03 09:17:37;;;;;;;8.30;6.38;;;12.90;61.70;;;;;;5078721;28;20039;-73
2021/05/03 09:20:06;;;;;;;8.27;6.00;;;13.00;61.30;;;;;;5070612;28;20037;-72
2021/05/03 09:22:46;;;;;;;9.73;6.85;;;13.10;61.40;;;;;;5070289;28;20549;-72
2021/05/03 09:25:23;;;;;;;10.30;6.65;;;13.30;61.20;;;;;;5070064;28;20048;-73
2021/05/03 09:28:05;;;;;;;9.30;6.72;;;13.40;61.40;;;;;;5065301;28;20092;-71
2021/05/03 09:30:35;;;;;;;8.88;7.05;;;13.50;60.50;;;;;;5070743;28;20080;-72
2021/05/03 09:33:25;;;;;;;10.55;7.53;;;13.60;60.00;;;;;;5070960;28;20052;-73
2021/05/03 09:35:56;;;;;;;9.60;6.25;;;13.60;59.80;;;;;;5066222;28;20056;-72
2021/05/03 09:38:39;;;;;;;6.77;5.07;;;13.70;60.00;;;;;;5070446;28;20041;-72
2021/05/03 09:41:20;;;;;;;10.95;5.90;;;13.80;59.90;;;;;;5066785;28;20057;-72
2021/05/03 09:43:55;;;;;;;8.55;5.03;;;14.00;59.60;;;;;;5068702;28;20044;-72
2021/05/03 09:46:42;;;;;;;10.13;6.47;;;14.20;59.30;;;;;;5051662;28;20052;-72
2021/05/03 09:49:10;;;;;;;8.15;5.63;;;14.30;58.90;;;;;;5059534;28;20075;-72
2021/05/03 09:51:56;;;;;;;7.30;4.88;;;14.30;58.60;;;;;;5048031;28;20095;-72
2021/05/03 09:54:31;;;;;;;9.13;6.22;;;14.50;58.60;;;;;;5060921;28;20063;-72
2021/05/03 09:57:11;;;;;;;7.53;4.55;;;14.60;58.10;;;;;;5062348;28;20040;-72
2021/05/03 09:59:39;;;;;;;6.57;5.22;;;14.70;58.00;;;;;;5066156;28;20495;-72
2021/05/03 10:02:26;;;;;;;8.05;4.90;;;14.90;57.70;;;;;;5057244;28;20040;-72
2021/05/03 10:05:09;;;;;;;8.30;5.43;;;15.00;57.30;;;;;;5054165;28;20047;-73
2021/05/03 10:07:41;;;;;;;10.15;6.00;;;15.10;56.90;;;;;;5064276;28;20070;-72
2021/05/03 10:10:48;;;;;;;8.32;5.72;;;15.10;56.30;;;;;;5041497;28;20037;-72
2021/05/03 10:13:03;;;;;;;9.40;6.75;;;15.00;56.20;;;;;;5062689;28;20137;-72
2021/05/03 10:15:31;;;;;;;11.50;7.07;;;14.90;55.50;;;;;;5061802;28;20060;-72
2021/05/03 10:17:58;;;;;;;7.55;6.07;;;14.80;55.40;;;;;;5066564;28;20463;-72
2021/05/03 10:20:25;;;;;;;9.73;7.05;;;14.80;55.60;;;;;;5052185;28;20048;-72
2021/05/03 10:22:53;;;;;;;7.10;5.22;;;15.00;55.50;;;;;;5060054;28;20045;-75
2021/05/03 10:25:20;;;;;;;7.82;5.07;;;15.20;55.40;;;;;;5060542;28;20040;-73
2021/05/03 10:27:47;;;;;;;7.55;5.40;;;15.40;55.10;;;;;;5059518;28;20048;-73
2021/05/03 10:30:25;;;;;;;7.20;5.50;;;15.60;54.70;;;;;;5047703;28;20041;-72
2021/05/03 10:33:01;;;;;;;8.35;6.25;;;15.80;54.10;;;;;;5066721;28;20051;-72
2021/05/03 10:35:33;;;;;;;7.43;5.30;;;15.80;53.50;;;;;;5066325;28;20106;-73
2021/05/03 10:37:59;;;;;;;6.97;5.07;;;15.90;53.60;;;;;;5062268;28;20040;-73
2021/05/03 10:40:28;;;;;;;6.85;5.30;;;16.00;53.30;;;;;;5060884;28;20043;-72
2021/05/03 10:43:05;;;;;;;7.88;6.15;;;15.80;52.90;;;;;;5067416;28;20438;-72
2021/05/03 10:45:45;;;;;;;7.50;5.75;;;15.70;52.80;;;;;;5067089;28;20122;-72
2021/05/03 10:49:11;;;;;;;8.40;6.32;;;15.60;52.90;;;;;;5065687;28;20056;-72
2021/05/03 10:57:26;;;;;;;7.65;5.85;;;15.70;52.60;;;;;;5071962;28;20044;-73
2021/05/03 10:59:57;;;;;;;7.40;5.78;;;15.70;51.80;;;;;;5050520;28;20056;-73
2021/05/03 11:02:45;;;;;;;7.70;6.30;;;15.60;52.00;;;;;;5073225;28;20036;-73
2021/05/03 11:05:15;;;;;;;7.43;6.05;;;15.60;51.70;;;;;;5064995;28;20119;-72
2021/05/03 11:08:04;;;;;;;8.05;5.55;;;15.70;51.90;;;;;;5055101;28;20079;-73
2021/05/03 11:11:05;;;;;;;6.80;5.20;;;16.10;51.20;;;;;;5068191;28;21604;-74
2021/05/03 11:13:40;;;;;;;8.30;5.57;;;16.20;50.40;;;;;;5061988;28;20040;-74
2021/05/03 11:16:26;;;;;;;12.00;7.05;;;16.10;50.10;;;;;;5071108;28;20045;-76
2021/05/03 11:18:54;;;;;;;9.68;6.38;;;15.80;50.00;;;;;;5070414;28;20037;-74
2021/05/03 11:21:44;;;;;;;7.38;5.47;;;15.70;49.70;;;;;;5068742;28;20074;-73
2021/05/03 11:24:30;;;;;;;7.53;5.82;;;15.70;49.90;;;;;;5068729;28;20051;-73
2021/05/03 11:27:01;;;;;;;6.70;4.90;;;15.90;48.90;;;;;;5063137;28;20079;-73
2021/05/03 11:32:11;;;;;;;6.70;5.25;;;16.00;48.70;;;;;;5065706;28;20036;-73
2021/05/03 11:35:12;;;;;;;5.38;3.72;;;16.30;48.30;;;;;;5064316;28;20082;-73
2021/05/03 11:38:02;;;;;;;7.40;4.57;;;16.80;48.00;;;;;;5063721;28;20051;-73
2021/05/03 11:46:08;;;;;;;5.75;4.03;;;16.20;47.70;;;;;;5069921;28;20059;-72
2021/05/03 11:48:36;;;;;;;5.53;3.17;;;16.20;48.20;;;;;;5069529;28;20465;-72
2021/05/03 11:51:08;;;;;;;6.78;3.38;;;16.30;47.60;;;;;;5070044;28;20043;-73
2021/05/03 11:53:43;;;;;;;6.85;5.30;;;16.60;47.40;;;;;;5069903;28;20492;-73
2021/05/03 11:56:24;;;;;;;6.28;4.28;;;16.50;46.10;;;;;;5070215;28;20048;-73
2021/05/03 11:58:57;;;;;;;8.30;4.85;;;16.30;46.50;;;;;;5057146;28;20044;-73
2021/05/03 12:01:28;;;;;;;6.88;4.88;;;16.40;46.40;;;;;;5070507;28;20048;-73
2021/05/03 12:03:58;;;;;;;6.25;4.80;;;16.60;46.10;;;;;;5071388;28;20044;-73
2021/05/03 12:06:35;;;;;;;5.95;3.75;;;16.80;45.90;;;;;;5071272;28;20086;-73
2021/05/03 12:09:11;;;;;;;7.45;3.80;;;17.00;45.80;;;;;;5063311;28;20045;-74
2021/05/03 12:11:54;;;;;;;5.75;3.92;;;17.20;45.70;;;;;;5070285;28;20036;-73
2021/05/03 12:14:55;;;;;;;4.93;3.75;;;17.10;45.60;;;;;;5070212;28;20056;-74
2021/05/03 12:17:29;;;;;;;5.88;3.83;;;16.90;45.50;;;;;;5071258;28;20040;-73
2021/05/03 12:20:07;;;;;;;4.70;4.05;;;16.70;45.10;;;;;;5069849;28;20372;-73
2021/05/03 12:22:35;;;;;;;4.70;3.60;;;16.60;45.00;;;;;;5071023;28;20095;-74
2021/05/03 12:25:12;;;;;;;6.35;4.57;;;16.40;45.30;;;;;;5056188;28;20053;-73
2021/05/03 12:27:39;;;;;;;5.75;4.53;;;16.30;45.00;;;;;;5051771;28;20037;-73
2021/05/03 12:30:07;;;;;;;6.07;4.55;;;16.40;45.00;;;;;;5069910;28;20098;-74
2021/05/03 12:32:36;;;;;;;7.43;5.25;;;16.50;45.20;;;;;;5037487;28;20127;-73
2021/05/03 12:35:14;;;;;;;6.15;4.10;;;16.60;44.80;;;;;;5071772;28;20044;-73
2021/05/03 12:37:41;;;;;;;5.55;4.03;;;16.60;44.90;;;;;;5071057;28;20041;-74
2021/05/03 12:40:22;;;;;;;5.43;3.60;;;16.60;44.90;;;;;;5074829;28;20407;-72
2021/05/03 12:42:53;;;;;;;6.78;4.53;;;16.70;44.90;;;;;;5068855;28;20110;-74
2021/05/03 13:06:50;;;;;;;5.00;3.88;;;17.60;44.10;;;;;;5062277;28;20094;-74
2021/05/03 13:29:47;;;;;;;5.20;3.53;;;17.80;43.20;;;;;;5086030;28;20120;-72
2021/05/03 13:32:20;;;;;;;4.47;3.35;;;17.90;43.20;;;;;;5065469;28;20510;-73
2021/05/03 13:34:48;;;;;;;4.15;2.60;;;18.00;42.40;;;;;;5064434;28;20029;-73
2021/05/03 13:37:15;;;;;;;4.90;3.47;;;18.00;42.40;;;;;;5065272;28;20051;-73
2021/05/03 13:40:03;;;;;;;4.40;3.30;;;18.00;42.40;;;;;;5055129;28;20045;-73
2021/05/03 13:42:29;;;;;;;6.22;3.75;;;17.90;41.80;;;;;;5057442;28;20071;-73
2021/05/03 13:44:59;;;;;;;6.35;3.65;;;17.70;41.90;;;;;;5069628;28;20040;-73
2021/05/03 13:47:26;;;;;;;3.65;2.45;;;17.60;42.40;;;;;;5055893;28;20044;-72
2021/05/03 13:49:52;;;;;;;5.40;2.67;;;17.60;42.80;;;;;;5073609;28;20106;-72
2021/05/03 13:52:21;;;;;;;4.32;2.70;;;17.70;42.60;;;;;;5053686;28;20378;-72
2021/05/03 13:54:48;;;;;;;5.10;2.75;;;17.80;42.80;;;;;;5067564;28;20037;-72
2021/05/03 13:57:15;;;;;;;5.18;2.58;;;17.80;43.00;;;;;;5054045;28;20048;-72
2021/05/03 13:59:43;;;;;;;4.85;3.42;;;17.70;42.60;;;;;;5064092;28;20558;-73
2021/05/03 14:02:10;;;;;;;5.35;3.00;;;17.60;42.50;;;;;;5068316;28;20045;-74
2021/05/03 14:04:37;;;;;;;4.45;2.95;;;17.50;42.50;;;;;;5066848;28;20037;-73
2021/05/03 14:07:07;;;;;;;4.30;2.90;;;17.50;43.20;;;;;;5063603;28;20399;-73
2021/05/03 14:09:34;;;;;;;4.50;3.17;;;17.80;42.30;;;;;;5064905;28;20032;-73
2021/05/03 14:12:02;;;;;;;3.63;2.55;;;17.90;41.70;;;;;;5063613;28;20037;-73
2021/05/03 14:14:31;;;;;;;4.00;2.20;;;17.90;41.80;;;;;;5068187;28;20041;-73
2021/05/03 14:17:01;;;;;;;5.95;2.67;;;17.90;41.90;;;;;;5059457;28;20079;-72
2021/05/03 14:19:33;;;;;;;4.15;2.15;;;18.10;41.40;;;;;;5058505;28;20056;-73